sensor_id;sensor_type;location;lat;lon;timestamp;pressure;altitude;pressure_sealevel;temperature;humidity
78373;BME280;67656;52.074;4.758;2024-02-15T00:02:13;101758.28;;;11.78;100.00
78373;BME280;67656;52.074;4.758;2024-02-15T00:07:14;101754.66;;;11.83;100.00
78373;BME280;67656;52.074;4.758;2024-02-15T00:12:14;101754.72;;;11.79;100.00
78373;BME280;67656;52.074;4.758;2024-02-15T00:17:16;101755.72;;;11.73;100.00
78373;BME280;67656;52.074;4.758;2024-02-15T00:22:18;101753.09;;;11.72;100.00
78373;BME280;67656;52.074;4.758;2024-02-15T00:27:18;101748.72;;;11.71;100.00
78373;BME280;67656;52.074;4.758;2024-02-15T00:32:19;101757.53;;;11.71;100.00
78373;BME280;67656;52.074;4.758;2024-02-15T00:37:20;101741.66;;;11.71;100.00
78373;BME280;67656;52.074;4.758;2024-02-15T00:42:20;101745.34;;;11.62;100.00
78373;BME280;67656;52.074;4.758;2024-02-15T00:47:21;101746.97;;;11.71;100.00
78373;BME280;67656;52.074;4.758;2024-02-15T00:52:21;101736.66;;;11.56;100.00
78373;BME280;67656;52.074;4.758;2024-02-15T00:57:22;101738.47;;;11.52;100.00
78373;BME280;67656;52.074;4.758;2024-02-15T01:02:24;101728.13;;;11.38;100.00
78373;BME280;67656;52.074;4.758;2024-02-15T01:07:25;101737.78;;;11.41;100.00
78373;BME280;67656;52.074;4.758;2024-02-15T01:12:25;101740.34;;;11.45;100.00
78373;BME280;67656;52.074;4.758;2024-02-15T01:17:26;101729.09;;;11.34;100.00
78373;BME280;67656;52.074;4.758;2024-02-15T01:22:26;101723.88;;;11.29;100.00
78373;BME280;67656;52.074;4.758;2024-02-15T01:27:27;101732.66;;;11.33;100.00
78373;BME280;67656;52.074;4.758;2024-02-15T01:32:29;101731.59;;;11.42;100.00
78373;BME280;67656;52.074;4.758;2024-02-15T01:37:31;101723.00;;;11.29;100.00
78373;BME280;67656;52.074;4.758;2024-02-15T01:42:34;101728.25;;;11.32;100.00
78373;BME280;67656;52.074;4.758;2024-02-15T01:47:41;101709.00;;;11.24;100.00
78373;BME280;67656;52.074;4.758;2024-02-15T01:52:42;101724.03;;;11.20;100.00
78373;BME280;67656;52.074;4.758;2024-02-15T01:57:45;101717.00;;;11.19;100.00
78373;BME280;67656;52.074;4.758;2024-02-15T02:02:49;101716.91;;;11.25;100.00
78373;BME280;67656;52.074;4.758;2024-02-15T02:07:50;101702.94;;;11.17;100.00
78373;BME280;67656;52.074;4.758;2024-02-15T02:12:50;101707.41;;;11.15;100.00
78373;BME280;67656;52.074;4.758;2024-02-15T02:17:51;101704.00;;;11.06;100.00
78373;BME280;67656;52.074;4.758;2024-02-15T02:22:53;101695.28;;;11.00;100.00
78373;BME280;67656;52.074;4.758;2024-02-15T02:27:57;101697.00;;;11.04;100.00
78373;BME280;67656;52.074;4.758;2024-02-15T02:32:58;101701.38;;;11.03;100.00
78373;BME280;67656;52.074;4.758;2024-02-15T02:37:59;101697.84;;;11.04;100.00
78373;BME280;67656;52.074;4.758;2024-02-15T02:43:01;101685.63;;;11.00;100.00
78373;BME280;67656;52.074;4.758;2024-02-15T02:48:02;101686.47;;;11.02;100.00
78373;BME280;67656;52.074;4.758;2024-02-15T02:53:03;101675.91;;;11.02;100.00
78373;BME280;67656;52.074;4.758;2024-02-15T02:58:03;101689.94;;;11.06;100.00
78373;BME280;67656;52.074;4.758;2024-02-15T03:03:04;101681.31;;;10.95;100.00
78373;BME280;67656;52.074;4.758;2024-02-15T03:08:06;101684.00;;;10.91;100.00
78373;BME280;67656;52.074;4.758;2024-02-15T03:13:06;101678.53;;;11.02;100.00
78373;BME280;67656;52.074;4.758;2024-02-15T03:18:08;101683.81;;;11.02;100.00
78373;BME280;67656;52.074;4.758;2024-02-15T03:23:09;101673.09;;;11.12;100.00
78373;BME280;67656;52.074;4.758;2024-02-15T03:28:10;101674.84;;;11.13;100.00
78373;BME280;67656;52.074;4.758;2024-02-15T03:33:11;101678.16;;;11.24;100.00
78373;BME280;67656;52.074;4.758;2024-02-15T03:38:13;101671.13;;;11.23;100.00
78373;BME280;67656;52.074;4.758;2024-02-15T03:43:14;101663.97;;;11.30;100.00
78373;BME280;67656;52.074;4.758;2024-02-15T03:48:17;101677.06;;;11.37;100.00
78373;BME280;67656;52.074;4.758;2024-02-15T03:53:18;101675.31;;;11.35;100.00
78373;BME280;67656;52.074;4.758;2024-02-15T03:58:18;101672.66;;;11.36;100.00
78373;BME280;67656;52.074;4.758;2024-02-15T04:03:19;101662.09;;;11.36;100.00
78373;BME280;67656;52.074;4.758;2024-02-15T04:08:20;101657.75;;;11.34;100.00
78373;BME280;67656;52.074;4.758;2024-02-15T04:13:21;101655.25;;;11.26;100.00
78373;BME280;67656;52.074;4.758;2024-02-15T04:18:22;101656.28;;;11.16;100.00
78373;BME280;67656;52.074;4.758;2024-02-15T04:23:25;101658.88;;;11.19;100.00
78373;BME280;67656;52.074;4.758;2024-02-15T04:28:26;101658.81;;;11.22;100.00
78373;BME280;67656;52.074;4.758;2024-02-15T04:33:26;101644.94;;;11.11;100.00
78373;BME280;67656;52.074;4.758;2024-02-15T04:38:27;101659.75;;;11.18;100.00
78373;BME280;67656;52.074;4.758;2024-02-15T04:43:27;101651.91;;;11.15;100.00
78373;BME280;67656;52.074;4.758;2024-02-15T04:48:46;101673.81;;;11.20;100.00
78373;BME280;67656;52.074;4.758;2024-02-15T04:54:06;101677.41;;;11.17;100.00
78373;BME280;67656;52.074;4.758;2024-02-15T04:59:17;101691.34;;;11.27;100.00
78373;BME280;67656;52.074;4.758;2024-02-15T05:04:18;101683.41;;;11.27;100.00
78373;BME280;67656;52.074;4.758;2024-02-15T05:09:19;101654.34;;;11.26;100.00
78373;BME280;67656;52.074;4.758;2024-02-15T05:14:20;101648.25;;;11.22;100.00
78373;BME280;67656;52.074;4.758;2024-02-15T05:19:23;101600.78;;;11.16;100.00
78373;BME280;67656;52.074;4.758;2024-02-15T05:24:24;101614.97;;;11.12;100.00
78373;BME280;67656;52.074;4.758;2024-02-15T05:29:24;101625.59;;;11.09;100.00
78373;BME280;67656;52.074;4.758;2024-02-15T05:34:25;101630.78;;;11.15;100.00
78373;BME280;67656;52.074;4.758;2024-02-15T05:39:29;101627.16;;;11.19;100.00
78373;BME280;67656;52.074;4.758;2024-02-15T05:44:29;101625.50;;;11.15;100.00
78373;BME280;67656;52.074;4.758;2024-02-15T05:49:31;101631.69;;;11.12;100.00
78373;BME280;67656;52.074;4.758;2024-02-15T05:54:31;101630.84;;;11.12;100.00
78373;BME280;67656;52.074;4.758;2024-02-15T05:59:32;101620.25;;;11.12;100.00
78373;BME280;67656;52.074;4.758;2024-02-15T06:04:32;101622.78;;;11.18;100.00
78373;BME280;67656;52.074;4.758;2024-02-15T06:09:34;101623.63;;;11.20;100.00
78373;BME280;67656;52.074;4.758;2024-02-15T06:14:34;101624.47;;;11.22;100.00
78373;BME280;67656;52.074;4.758;2024-02-15T06:19:35;101616.56;;;11.22;100.00
78373;BME280;67656;52.074;4.758;2024-02-15T06:24:35;101605.97;;;11.22;100.00
78373;BME280;67656;52.074;4.758;2024-02-15T06:29:36;101608.47;;;11.30;100.00
78373;BME280;67656;52.074;4.758;2024-02-15T06:34:42;101611.22;;;11.25;100.00
78373;BME280;67656;52.074;4.758;2024-02-15T06:39:43;101606.06;;;11.16;100.00
78373;BME280;67656;52.074;4.758;2024-02-15T06:44:44;101607.00;;;11.13;100.00
78373;BME280;67656;52.074;4.758;2024-02-15T06:49:45;101597.25;;;11.18;100.00
78373;BME280;67656;52.074;4.758;2024-02-15T06:54:48;101611.34;;;11.17;100.00
78373;BME280;67656;52.074;4.758;2024-02-15T06:59:51;101629.72;;;11.24;100.00
78373;BME280;67656;52.074;4.758;2024-02-15T07:04:51;101623.66;;;11.18;100.00
78373;BME280;67656;52.074;4.758;2024-02-15T07:09:53;101597.25;;;11.17;100.00
78373;BME280;67656;52.074;4.758;2024-02-15T07:14:53;101625.41;;;11.18;100.00
78373;BME280;67656;52.074;4.758;2024-02-15T07:19:58;101636.84;;;11.20;100.00
78373;BME280;67656;52.074;4.758;2024-02-15T07:24:58;101648.25;;;11.22;100.00
78373;BME280;67656;52.074;4.758;2024-02-15T07:29:59;101646.47;;;11.24;100.00
78373;BME280;67656;52.074;4.758;2024-02-15T07:35:00;101644.50;;;11.35;100.00
78373;BME280;67656;52.074;4.758;2024-02-15T07:40:01;101618.34;;;11.20;100.00
78373;BME280;67656;52.074;4.758;2024-02-15T07:45:02;101621.00;;;11.20;100.00
78373;BME280;67656;52.074;4.758;2024-02-15T07:50:04;101618.28;;;11.23;100.00
78373;BME280;67656;52.074;4.758;2024-02-15T07:55:05;101623.59;;;11.23;100.00
78373;BME280;67656;52.074;4.758;2024-02-15T08:00:06;101629.72;;;11.24;100.00
78373;BME280;67656;52.074;4.758;2024-02-15T08:05:12;101620.88;;;11.26;100.00
78373;BME280;67656;52.074;4.758;2024-02-15T08:10:13;101614.72;;;11.27;100.00
78373;BME280;67656;52.074;4.758;2024-02-15T08:15:15;101621.72;;;11.28;100.00
78373;BME280;67656;52.074;4.758;2024-02-15T08:20:17;101590.06;;;11.25;100.00
78373;BME280;67656;52.074;4.758;2024-02-15T08:25:19;101605.03;;;11.26;100.00
78373;BME280;67656;52.074;4.758;2024-02-15T08:30:19;101607.72;;;11.23;100.00
78373;BME280;67656;52.074;4.758;2024-02-15T08:35:20;101610.38;;;11.21;100.00
78373;BME280;67656;52.074;4.758;2024-02-15T08:40:20;101614.66;;;11.29;100.00
78373;BME280;67656;52.074;4.758;2024-02-15T08:45:22;101612.78;;;11.35;100.00
78373;BME280;67656;52.074;4.758;2024-02-15T08:50:24;101621.47;;;11.41;100.00
78373;BME280;67656;52.074;4.758;2024-02-15T08:55:24;101605.69;;;11.37;100.00
78373;BME280;67656;52.074;4.758;2024-02-15T09:00:26;101603.91;;;11.40;100.00
78373;BME280;67656;52.074;4.758;2024-02-15T09:05:26;101596.69;;;11.48;100.00
78373;BME280;67656;52.074;4.758;2024-02-15T09:10:27;101603.72;;;11.49;100.00
78373;BME280;67656;52.074;4.758;2024-02-15T09:15:27;101603.53;;;11.58;100.00
78373;BME280;67656;52.074;4.758;2024-02-15T09:20:28;101601.72;;;11.60;100.00
78373;BME280;67656;52.074;4.758;2024-02-15T09:25:28;101606.03;;;11.66;100.00
78373;BME280;67656;52.074;4.758;2024-02-15T09:30:29;101592.91;;;11.61;100.00
78373;BME280;67656;52.074;4.758;2024-02-15T09:35:29;101599.78;;;11.68;100.00
78373;BME280;67656;52.074;4.758;2024-02-15T09:40:30;101592.66;;;11.74;100.00
78373;BME280;67656;52.074;4.758;2024-02-15T09:45:30;101585.91;;;12.01;100.00
78373;BME280;67656;52.074;4.758;2024-02-15T09:50:34;101586.16;;;11.89;100.00
78373;BME280;67656;52.074;4.758;2024-02-15T09:55:36;101588.63;;;11.96;100.00
78373;BME280;67656;52.074;4.758;2024-02-15T10:00:39;101574.56;;;11.94;100.00
78373;BME280;67656;52.074;4.758;2024-02-15T10:05:42;101576.91;;;12.10;100.00
78373;BME280;67656;52.074;4.758;2024-02-15T10:10:43;101555.56;;;12.18;100.00
78373;BME280;67656;52.074;4.758;2024-02-15T10:15:44;101564.78;;;12.37;100.00
78373;BME280;67656;52.074;4.758;2024-02-15T10:20:59;101571.94;;;12.34;100.00
78373;BME280;67656;52.074;4.758;2024-02-15T10:26:19;101573.63;;;12.38;100.00
78373;BME280;67656;52.074;4.758;2024-02-15T10:31:19;101569.31;;;12.34;100.00
78373;BME280;67656;52.074;4.758;2024-02-15T10:36:23;101562.25;;;12.34;100.00
78373;BME280;67656;52.074;4.758;2024-02-15T10:41:25;101561.06;;;12.46;100.00
78373;BME280;67656;52.074;4.758;2024-02-15T10:46:26;101554.91;;;12.46;100.00
78373;BME280;67656;52.074;4.758;2024-02-15T10:51:27;101542.88;;;12.67;100.00
78373;BME280;67656;52.074;4.758;2024-02-15T10:56:34;101545.13;;;12.84;100.00
78373;BME280;67656;52.074;4.758;2024-02-15T11:01:37;101548.97;;;13.05;100.00
78373;BME280;67656;52.074;4.758;2024-02-15T11:06:39;101546.31;;;13.05;100.00
78373;BME280;67656;52.074;4.758;2024-02-15T11:11:44;101536.94;;;13.25;100.00
78373;BME280;67656;52.074;4.758;2024-02-15T11:16:44;101528.16;;;13.23;100.00
78373;BME280;67656;52.074;4.758;2024-02-15T11:21:55;101524.56;;;13.25;100.00
78373;BME280;67656;52.074;4.758;2024-02-15T11:26:59;101521.53;;;13.39;100.00
78373;BME280;67656;52.074;4.758;2024-02-15T11:32:00;101512.22;;;13.24;100.00
78373;BME280;67656;52.074;4.758;2024-02-15T11:37:01;101510.25;;;13.62;100.00
78373;BME280;67656;52.074;4.758;2024-02-15T11:42:29;101509.47;;;13.89;100.00
78373;BME280;67656;52.074;4.758;2024-02-15T11:47:32;101488.81;;;13.70;100.00
78373;BME280;67656;52.074;4.758;2024-02-15T11:52:33;101494.84;;;13.75;100.00
78373;BME280;67656;52.074;4.758;2024-02-15T11:57:33;101475.13;;;13.84;100.00
78373;BME280;67656;52.074;4.758;2024-02-15T12:02:34;101472.31;;;13.89;100.00
78373;BME280;67656;52.074;4.758;2024-02-15T12:07:35;101468.22;;;14.07;100.00
78373;BME280;67656;52.074;4.758;2024-02-15T12:12:36;101461.31;;;14.01;100.00
78373;BME280;67656;52.074;4.758;2024-02-15T12:17:37;101460.00;;;14.41;100.00
78373;BME280;67656;52.074;4.758;2024-02-15T12:22:44;101452.44;;;14.29;100.00
78373;BME280;67656;52.074;4.758;2024-02-15T12:27:55;101441.59;;;14.08;100.00
78373;BME280;67656;52.074;4.758;2024-02-15T12:33:11;101435.38;;;14.36;100.00
78373;BME280;67656;52.074;4.758;2024-02-15T12:38:12;101414.50;;;14.51;100.00
78373;BME280;67656;52.074;4.758;2024-02-15T12:43:19;101410.22;;;14.47;100.00
78373;BME280;67656;52.074;4.758;2024-02-15T12:48:19;101410.66;;;14.59;100.00
78373;BME280;67656;52.074;4.758;2024-02-15T12:53:23;101395.31;;;14.93;100.00
78373;BME280;67656;52.074;4.758;2024-02-15T12:58:26;101390.31;;;14.84;100.00
78373;BME280;67656;52.074;4.758;2024-02-15T13:03:28;101384.44;;;14.76;100.00
78373;BME280;67656;52.074;4.758;2024-02-15T13:08:28;101391.84;;;14.66;100.00
78373;BME280;67656;52.074;4.758;2024-02-15T13:13:29;101375.44;;;14.80;100.00
78373;BME280;67656;52.074;4.758;2024-02-15T13:18:30;101363.09;;;15.01;100.00
78373;BME280;67656;52.074;4.758;2024-02-15T13:23:31;101348.41;;;15.14;100.00
78373;BME280;67656;52.074;4.758;2024-02-15T13:28:31;101336.19;;;15.10;100.00
78373;BME280;67656;52.074;4.758;2024-02-15T13:33:34;101310.72;;;15.04;100.00
78373;BME280;67656;52.074;4.758;2024-02-15T13:38:37;101308.78;;;15.08;100.00
78373;BME280;67656;52.074;4.758;2024-02-15T13:43:37;101305.88;;;14.92;100.00
78373;BME280;67656;52.074;4.758;2024-02-15T13:48:37;101297.22;;;14.87;100.00
78373;BME280;67656;52.074;4.758;2024-02-15T13:53:41;101292.97;;;15.05;100.00
78373;BME280;67656;52.074;4.758;2024-02-15T13:58:41;101285.72;;;14.86;100.00
78373;BME280;67656;52.074;4.758;2024-02-15T14:03:45;101281.75;;;14.74;100.00
78373;BME280;67656;52.074;4.758;2024-02-15T14:08:47;101283.22;;;14.82;100.00
78373;BME280;67656;52.074;4.758;2024-02-15T14:13:47;101276.94;;;15.07;100.00
78373;BME280;67656;52.074;4.758;2024-02-15T14:18:48;101274.84;;;15.37;100.00
78373;BME280;67656;52.074;4.758;2024-02-15T14:23:48;101263.16;;;15.19;100.00
78373;BME280;67656;52.074;4.758;2024-02-15T14:28:52;101237.38;;;15.21;100.00
78373;BME280;67656;52.074;4.758;2024-02-15T14:33:55;101253.69;;;15.12;100.00
78373;BME280;67656;52.074;4.758;2024-02-15T14:38:56;101240.34;;;14.91;100.00
78373;BME280;67656;52.074;4.758;2024-02-15T14:43:57;101245.97;;;14.83;100.00
78373;BME280;67656;52.074;4.758;2024-02-15T14:48:59;101240.69;;;14.82;100.00
78373;BME280;67656;52.074;4.758;2024-02-15T14:54:01;101240.16;;;14.73;100.00
78373;BME280;67656;52.074;4.758;2024-02-15T14:59:04;101237.50;;;14.73;100.00
78373;BME280;67656;52.074;4.758;2024-02-15T15:04:10;101233.09;;;14.72;100.00
78373;BME280;67656;52.074;4.758;2024-02-15T15:09:10;101226.50;;;14.83;100.00
78373;BME280;67656;52.074;4.758;2024-02-15T15:14:11;101225.22;;;14.71;100.00
78373;BME280;67656;52.074;4.758;2024-02-15T15:19:11;101220.28;;;14.60;100.00
78373;BME280;67656;52.074;4.758;2024-02-15T15:24:13;101219.75;;;14.50;100.00
78373;BME280;67656;52.074;4.758;2024-02-15T15:29:15;101217.88;;;14.54;100.00
78373;BME280;67656;52.074;4.758;2024-02-15T15:34:17;101216.53;;;14.42;100.00
78373;BME280;67656;52.074;4.758;2024-02-15T15:39:19;101221.31;;;14.32;100.00
78373;BME280;67656;52.074;4.758;2024-02-15T15:44:20;101214.16;;;14.34;100.00
78373;BME280;67656;52.074;4.758;2024-02-15T15:49:20;101193.66;;;14.38;100.00
78373;BME280;67656;52.074;4.758;2024-02-15T15:54:24;101206.31;;;14.31;100.00
78373;BME280;67656;52.074;4.758;2024-02-15T15:59:25;101204.13;;;14.19;100.00
78373;BME280;67656;52.074;4.758;2024-02-15T16:04:27;101206.00;;;14.17;100.00
78373;BME280;67656;52.074;4.758;2024-02-15T16:09:28;101199.28;;;14.06;100.00
78373;BME280;67656;52.074;4.758;2024-02-15T16:14:31;101190.63;;;14.01;100.00
78373;BME280;67656;52.074;4.758;2024-02-15T16:19:34;101195.41;;;13.91;100.00
78373;BME280;67656;52.074;4.758;2024-02-15T16:24:35;101208.34;;;13.75;100.00
78373;BME280;67656;52.074;4.758;2024-02-15T16:29:36;101207.78;;;13.67;100.00
78373;BME280;67656;52.074;4.758;2024-02-15T16:34:37;101198.44;;;13.55;100.00
78373;BME280;67656;52.074;4.758;2024-02-15T16:39:40;101188.25;;;13.43;100.00
78373;BME280;67656;52.074;4.758;2024-02-15T16:44:40;101187.66;;;13.33;100.00
78373;BME280;67656;52.074;4.758;2024-02-15T16:49:42;101188.66;;;13.30;100.00
78373;BME280;67656;52.074;4.758;2024-02-15T16:54:43;101190.97;;;13.14;100.00
78373;BME280;67656;52.074;4.758;2024-02-15T16:59:43;101187.66;;;13.08;100.00
78373;BME280;67656;52.074;4.758;2024-02-15T17:04:47;101186.09;;;13.00;100.00
78373;BME280;67656;52.074;4.758;2024-02-15T17:09:47;101178.66;;;12.85;100.00
78373;BME280;67656;52.074;4.758;2024-02-15T17:14:48;101189.50;;;12.77;100.00
78373;BME280;67656;52.074;4.758;2024-02-15T17:19:48;101181.81;;;12.69;100.00
78373;BME280;67656;52.074;4.758;2024-02-15T17:24:49;101190.88;;;12.60;100.00
78373;BME280;67656;52.074;4.758;2024-02-15T17:29:50;101188.53;;;12.51;100.00
78373;BME280;67656;52.074;4.758;2024-02-15T17:34:51;101197.38;;;12.50;100.00
78373;BME280;67656;52.074;4.758;2024-02-15T17:39:54;101192.19;;;12.47;100.00
78373;BME280;67656;52.074;4.758;2024-02-15T17:44:54;101188.00;;;12.40;100.00
78373;BME280;67656;52.074;4.758;2024-02-15T17:49:55;101174.94;;;12.34;100.00
78373;BME280;67656;52.074;4.758;2024-02-15T17:54:58;101167.91;;;12.33;100.00
78373;BME280;67656;52.074;4.758;2024-02-15T17:59:59;101170.91;;;12.20;100.00
78373;BME280;67656;52.074;4.758;2024-02-15T18:05:01;101165.69;;;12.19;100.00
78373;BME280;67656;52.074;4.758;2024-02-15T18:10:04;101159.66;;;12.13;100.00
78373;BME280;67656;52.074;4.758;2024-02-15T18:15:07;101156.31;;;12.07;100.00
78373;BME280;67656;52.074;4.758;2024-02-15T18:20:10;101158.13;;;12.05;100.00
78373;BME280;67656;52.074;4.758;2024-02-15T18:25:12;101153.91;;;11.97;100.00
78373;BME280;67656;52.074;4.758;2024-02-15T18:30:14;101146.06;;;11.94;100.00
78373;BME280;67656;52.074;4.758;2024-02-15T18:35:15;101130.19;;;11.94;100.00
78373;BME280;67656;52.074;4.758;2024-02-15T18:40:15;101142.50;;;11.95;100.00
78373;BME280;67656;52.074;4.758;2024-02-15T18:45:17;101137.41;;;11.89;100.00
78373;BME280;67656;52.074;4.758;2024-02-15T18:50:19;101126.81;;;11.89;100.00
78373;BME280;67656;52.074;4.758;2024-02-15T18:55:20;101118.06;;;11.87;100.00
78373;BME280;67656;52.074;4.758;2024-02-15T19:00:21;101127.97;;;11.79;100.00
78373;BME280;67656;52.074;4.758;2024-02-15T19:05:21;101133.50;;;11.71;100.00
78373;BME280;67656;52.074;4.758;2024-02-15T19:10:22;101114.38;;;11.61;100.00
78373;BME280;67656;52.074;4.758;2024-02-15T19:15:23;101113.56;;;11.59;100.00
78373;BME280;67656;52.074;4.758;2024-02-15T19:20:23;101109.44;;;11.49;100.00
78373;BME280;67656;52.074;4.758;2024-02-15T19:25:26;101103.41;;;11.44;100.00
78373;BME280;67656;52.074;4.758;2024-02-15T19:30:29;101115.91;;;11.39;100.00
78373;BME280;67656;52.074;4.758;2024-02-15T19:35:30;101116.03;;;11.32;100.00
78373;BME280;67656;52.074;4.758;2024-02-15T19:40:32;101100.31;;;11.28;100.00
78373;BME280;67656;52.074;4.758;2024-02-15T19:45:32;101095.69;;;11.36;100.00
78373;BME280;67656;52.074;4.758;2024-02-15T19:50:35;101090.16;;;11.45;100.00
78373;BME280;67656;52.074;4.758;2024-02-15T19:55:37;101081.06;;;11.56;100.00
78373;BME280;67656;52.074;4.758;2024-02-15T20:00:42;101071.53;;;11.80;100.00
78373;BME280;67656;52.074;4.758;2024-02-15T20:05:42;101067.06;;;11.82;100.00
78373;BME280;67656;52.074;4.758;2024-02-15T20:10:43;101060.03;;;11.82;100.00
78373;BME280;67656;52.074;4.758;2024-02-15T20:15:45;101051.19;;;11.83;100.00
78373;BME280;67656;52.074;4.758;2024-02-15T20:20:49;101027.63;;;11.74;100.00
78373;BME280;67656;52.074;4.758;2024-02-15T20:25:49;101027.56;;;11.77;100.00
78373;BME280;67656;52.074;4.758;2024-02-15T20:30:52;101027.50;;;11.79;100.00
78373;BME280;67656;52.074;4.758;2024-02-15T20:35:53;101018.78;;;11.77;100.00
78373;BME280;67656;52.074;4.758;2024-02-15T20:40:58;101022.31;;;11.76;100.00
78373;BME280;67656;52.074;4.758;2024-02-15T20:46:02;101030.44;;;11.70;100.00
78373;BME280;67656;52.074;4.758;2024-02-15T20:51:05;101020.13;;;11.60;100.00
78373;BME280;67656;52.074;4.758;2024-02-15T20:56:07;101022.16;;;11.52;100.00
78373;BME280;67656;52.074;4.758;2024-02-15T21:01:08;101026.50;;;11.53;100.00
78373;BME280;67656;52.074;4.758;2024-02-15T21:06:08;101014.31;;;11.47;100.00
78373;BME280;67656;52.074;4.758;2024-02-15T21:11:10;101015.38;;;11.42;100.00
78373;BME280;67656;52.074;4.758;2024-02-15T21:16:17;101024.41;;;11.34;100.00
78373;BME280;67656;52.074;4.758;2024-02-15T21:21:22;101017.63;;;11.24;100.00
78373;BME280;67656;52.074;4.758;2024-02-15T21:26:26;101027.31;;;11.24;100.00
78373;BME280;67656;52.074;4.758;2024-02-15T21:31:26;101010.34;;;11.32;100.00
78373;BME280;67656;52.074;4.758;2024-02-15T21:36:28;101008.63;;;11.31;100.00
78373;BME280;67656;52.074;4.758;2024-02-15T21:41:28;101011.13;;;11.36;100.00
78373;BME280;67656;52.074;4.758;2024-02-15T21:46:30;101011.47;;;11.24;100.00
78373;BME280;67656;52.074;4.758;2024-02-15T21:51:32;101036.22;;;11.21;100.00
78373;BME280;67656;52.074;4.758;2024-02-15T21:56:33;101025.78;;;11.16;100.00
78373;BME280;67656;52.074;4.758;2024-02-15T22:01:40;101027.78;;;11.08;100.00
78373;BME280;67656;52.074;4.758;2024-02-15T22:06:45;101040.16;;;11.06;100.00
78373;BME280;67656;52.074;4.758;2024-02-15T22:11:47;101046.34;;;11.03;100.00
78373;BME280;67656;52.074;4.758;2024-02-15T22:16:48;101032.50;;;10.95;100.00
78373;BME280;67656;52.074;4.758;2024-02-15T22:21:50;101040.63;;;10.87;100.00
78373;BME280;67656;52.074;4.758;2024-02-15T22:26:52;101036.53;;;10.75;100.00
78373;BME280;67656;52.074;4.758;2024-02-15T22:31:56;101040.03;;;10.76;100.00
78373;BME280;67656;52.074;4.758;2024-02-15T22:36:58;101037.63;;;10.67;100.00
78373;BME280;67656;52.074;4.758;2024-02-15T22:42:00;101038.78;;;10.55;100.00
78373;BME280;67656;52.074;4.758;2024-02-15T22:47:01;101036.38;;;10.45;100.00
78373;BME280;67656;52.074;4.758;2024-02-15T22:52:01;101037.50;;;10.35;100.00
78373;BME280;67656;52.074;4.758;2024-02-15T22:57:03;101037.56;;;10.32;100.00
78373;BME280;67656;52.074;4.758;2024-02-15T23:02:04;101033.16;;;10.33;100.00
78373;BME280;67656;52.074;4.758;2024-02-15T23:07:06;101035.81;;;10.31;100.00
78373;BME280;67656;52.074;4.758;2024-02-15T23:12:08;101034.91;;;10.32;100.00
78373;BME280;67656;52.074;4.758;2024-02-15T23:17:08;101018.25;;;10.30;100.00
78373;BME280;67656;52.074;4.758;2024-02-15T23:22:13;101020.78;;;10.35;100.00
78373;BME280;67656;52.074;4.758;2024-02-15T23:27:15;101015.72;;;10.27;100.00
78373;BME280;67656;52.074;4.758;2024-02-15T23:32:18;101016.81;;;10.17;100.00
78373;BME280;67656;52.074;4.758;2024-02-15T23:37:20;101023.09;;;10.11;100.00
78373;BME280;67656;52.074;4.758;2024-02-15T23:42:20;101020.56;;;10.06;100.00
78373;BME280;67656;52.074;4.758;2024-02-15T23:47:21;101016.19;;;10.05;100.00
78373;BME280;67656;52.074;4.758;2024-02-15T23:52:22;101016.25;;;10.02;100.00
78373;BME280;67656;52.074;4.758;2024-02-15T23:57:22;101011.09;;;9.99;100.00
